createdAt,value
2022-11-15T00:03:28.954Z,10.90
2022-11-15T00:08:32.552Z,11.03
2022-11-15T00:13:34.575Z,11.02
2022-11-15T00:18:36.393Z,11.16
2022-11-15T00:23:38.572Z,11.22
2022-11-15T00:28:40.339Z,11.09
2022-11-15T00:33:44.462Z,11.07
2022-11-15T00:38:46.076Z,10.95
2022-11-15T00:43:47.609Z,10.94
2022-11-15T00:48:49.146Z,10.95
2022-11-15T00:53:50.605Z,10.90
2022-11-15T00:58:52.091Z,10.89
2022-11-15T01:03:56.240Z,10.90
2022-11-15T01:09:01.492Z,10.93
2022-11-15T01:14:02.959Z,10.95
2022-11-15T01:19:04.714Z,10.91
2022-11-15T01:24:06.615Z,10.95
2022-11-15T01:29:08.102Z,10.99
2022-11-15T01:34:09.673Z,10.78
2022-11-15T01:39:11.122Z,10.60
2022-11-15T01:44:40.283Z,10.63
2022-11-15T01:49:50.451Z,10.85
2022-11-15T01:54:57.210Z,10.84
2022-11-15T02:00:01.268Z,10.73
2022-11-15T02:05:03.094Z,10.92
2022-11-15T02:10:10.602Z,10.85
2022-11-15T02:15:12.571Z,11.08
2022-11-15T02:20:26.409Z,11.06
2022-11-15T02:25:39.912Z,11.11
2022-11-15T02:30:48.699Z,11.11
2022-11-15T02:35:53.086Z,11.05
2022-11-15T02:41:09.770Z,11.12
2022-11-15T02:46:22.751Z,11.07
2022-11-15T02:51:24.269Z,11.08
2022-11-15T02:56:25.798Z,11.05
2022-11-15T03:01:27.303Z,11.19
2022-11-15T03:07:07.309Z,11.07
2022-11-15T03:12:20.082Z,11.08
2022-11-15T03:17:31.697Z,11.16
2022-11-15T03:22:45.439Z,11.08
2022-11-15T03:27:50.700Z,11.15
2022-11-15T03:32:56.712Z,11.16
2022-11-15T03:38:12.223Z,10.92
2022-11-15T03:43:22.772Z,10.88
2022-11-15T03:48:28.337Z,10.70
2022-11-15T03:53:31.001Z,10.64
2022-11-15T03:58:32.742Z,10.59
2022-11-15T04:03:34.625Z,10.61
2022-11-15T04:08:36.298Z,10.62
2022-11-15T04:13:37.733Z,10.73
2022-11-15T04:18:39.193Z,10.62
2022-11-15T04:23:40.698Z,10.57
2022-11-15T04:28:42.542Z,10.64
2022-11-15T04:33:44.037Z,10.55
2022-11-15T04:38:45.505Z,10.54
2022-11-15T04:43:46.924Z,10.58
2022-11-15T04:48:48.497Z,10.45
2022-11-15T04:53:50.005Z,10.38
2022-11-15T04:58:51.479Z,10.38
2022-11-15T05:03:52.898Z,10.32
2022-11-15T05:08:54.708Z,10.26
2022-11-15T05:13:56.273Z,10.20
2022-11-15T05:18:57.759Z,10.36
2022-11-15T05:23:59.532Z,10.32
2022-11-15T05:29:01.122Z,10.19
2022-11-15T05:34:05.588Z,10.10
2022-11-15T05:39:09.326Z,10.02
2022-11-15T05:44:15.130Z,9.90
2022-11-15T05:49:20.169Z,9.84
2022-11-15T05:54:24.267Z,9.91
2022-11-15T05:59:25.808Z,9.84
2022-11-15T06:04:27.435Z,9.84
2022-11-15T06:09:28.922Z,9.92
2022-11-15T06:14:30.345Z,9.94
2022-11-15T06:19:32.020Z,9.99
2022-11-15T06:24:33.517Z,9.89
2022-11-15T06:29:35.172Z,9.92
2022-11-15T06:34:36.697Z,9.93
2022-11-15T06:39:38.284Z,9.93
2022-11-15T06:44:39.765Z,9.97
2022-11-15T06:49:41.338Z,10.00
2022-11-15T06:54:42.912Z,10.01
2022-11-15T06:59:44.401Z,10.11
2022-11-15T07:04:46.166Z,10.22
2022-11-15T07:09:47.627Z,10.15
2022-11-15T07:14:49.131Z,10.08
2022-11-15T07:19:50.587Z,10.10
2022-11-15T07:24:52.043Z,10.10
2022-11-15T07:29:53.688Z,10.09
2022-11-15T07:34:55.265Z,10.19
2022-11-15T07:39:56.758Z,10.29
2022-11-15T07:44:58.181Z,10.23
2022-11-15T07:49:59.680Z,10.27
2022-11-15T07:55:01.122Z,10.33
2022-11-15T08:00:03.915Z,10.31
2022-11-15T08:05:05.720Z,10.41
2022-11-15T08:10:07.856Z,10.46
2022-11-15T08:15:09.711Z,10.60
2022-11-15T08:20:11.608Z,10.65
2022-11-15T08:25:13.199Z,10.87
2022-11-15T08:30:14.772Z,11.03
2022-11-15T08:35:16.481Z,11.17
2022-11-15T08:40:17.948Z,11.12
2022-11-15T08:45:19.383Z,11.16
2022-11-15T08:50:20.985Z,11.27
2022-11-15T08:55:24.762Z,11.31
2022-11-15T09:00:26.428Z,11.45
2022-11-15T09:05:27.939Z,11.52
2022-11-15T09:10:29.358Z,11.43
2022-11-15T09:15:30.842Z,11.50
2022-11-15T09:20:32.258Z,11.66
2022-11-15T09:25:33.953Z,11.68
2022-11-15T09:30:35.484Z,11.66
2022-11-15T09:35:37.081Z,11.72
2022-11-15T09:40:38.781Z,11.73
2022-11-15T09:46:01.465Z,11.53
2022-11-15T09:51:05.702Z,11.53
2022-11-15T09:56:17.528Z,11.87
2022-11-15T10:01:35.554Z,11.85
2022-11-15T10:06:41.846Z,11.72
2022-11-15T10:11:43.511Z,11.56
2022-11-15T10:17:15.286Z,11.67
2022-11-15T10:22:54.685Z,11.73
2022-11-15T10:28:02.940Z,11.73
2022-11-15T10:33:33.488Z,11.90
2022-11-15T10:38:56.308Z,11.92
2022-11-15T10:44:13.090Z,11.94
2022-11-15T10:49:18.833Z,12.07
2022-11-15T10:54:43.565Z,12.11
2022-11-15T10:59:49.482Z,12.01
2022-11-15T11:04:52.332Z,12.15
2022-11-15T11:10:49.272Z,12.18
2022-11-15T11:15:41.770Z,12.25
2022-11-15T11:20:52.244Z,12.25
2022-11-15T11:26:12.234Z,12.39
2022-11-15T11:31:26.032Z,12.29
2022-11-15T11:36:32.712Z,12.17
2022-11-15T11:42:11.495Z,12.32
2022-11-15T11:47:24.690Z,12.32
2022-11-15T11:52:32.656Z,12.31
2022-11-15T11:57:59.380Z,12.22
2022-11-15T12:03:12.956Z,12.32
2022-11-15T12:08:31.290Z,12.27
2022-11-15T12:13:34.950Z,12.25
2022-11-15T12:18:36.610Z,12.33
2022-11-15T12:23:52.854Z,12.47
2022-11-15T12:29:08.860Z,12.30
2022-11-15T12:34:37.558Z,12.18
2022-11-15T12:40:17.126Z,12.28
2022-11-15T12:45:45.980Z,12.19
2022-11-15T12:50:53.565Z,12.36
2022-11-15T12:56:03.990Z,12.35
2022-11-15T13:01:08.390Z,12.32
2022-11-15T13:06:30.845Z,12.39
2022-11-15T13:11:46.729Z,12.55
2022-11-15T13:16:48.816Z,12.48
2022-11-15T13:21:50.777Z,12.39
2022-11-15T13:26:52.329Z,12.35
2022-11-15T13:31:53.821Z,12.30
2022-11-15T13:36:55.425Z,12.37
2022-11-15T13:41:57.090Z,12.36
2022-11-15T13:47:15.880Z,12.34
2022-11-15T13:52:17.712Z,12.18
2022-11-15T13:57:27.029Z,12.34
2022-11-15T14:02:32.665Z,12.41
2022-11-15T14:07:34.127Z,12.26
2022-11-15T14:12:36.615Z,12.32
2022-11-15T14:17:39.292Z,12.42
2022-11-15T14:23:01.751Z,12.36
2022-11-15T14:28:29.931Z,12.30
2022-11-15T14:33:37.341Z,12.34
2022-11-15T14:38:38.808Z,12.19
2022-11-15T14:43:40.406Z,12.17
2022-11-15T14:48:41.942Z,12.17
2022-11-15T14:53:44.878Z,12.25
2022-11-15T14:58:46.325Z,12.26
2022-11-15T15:03:47.803Z,12.48
2022-11-15T15:08:49.330Z,12.32
2022-11-15T15:13:51.261Z,12.33
2022-11-15T15:18:53.062Z,12.31
2022-11-15T15:23:55.205Z,12.36
2022-11-15T15:28:56.634Z,12.35
2022-11-15T15:33:58.250Z,12.37
2022-11-15T15:38:59.679Z,12.33
2022-11-15T15:44:01.158Z,12.29
2022-11-15T15:49:02.636Z,12.28
2022-11-15T15:54:04.299Z,12.25
2022-11-15T15:59:05.766Z,12.32
2022-11-15T16:04:07.298Z,12.33
2022-11-15T16:09:15.981Z,12.25
2022-11-15T16:14:17.980Z,12.09
2022-11-15T16:19:19.397Z,12.22
2022-11-15T16:24:21.966Z,12.26
2022-11-15T16:29:24.109Z,12.27
2022-11-15T16:34:29.969Z,12.22
2022-11-15T16:39:33.053Z,12.27
2022-11-15T16:44:34.545Z,12.22
2022-11-15T16:49:36.001Z,12.13
2022-11-15T16:54:37.463Z,12.25
2022-11-15T16:59:38.951Z,12.22
2022-11-15T17:04:40.841Z,12.15
2022-11-15T17:09:42.268Z,12.26
2022-11-15T17:14:43.766Z,12.29
2022-11-15T17:19:45.234Z,12.24
2022-11-15T17:24:46.729Z,12.21
2022-11-15T17:29:48.354Z,12.22
2022-11-15T17:34:49.798Z,12.29
2022-11-15T17:39:51.480Z,12.10
2022-11-15T17:44:53.701Z,12.28
2022-11-15T17:49:55.146Z,12.23
2022-11-15T17:54:56.765Z,12.21
2022-11-15T17:59:58.299Z,12.20
2022-11-15T18:04:59.719Z,12.20
2022-11-15T18:10:01.239Z,12.17
2022-11-15T18:15:02.810Z,12.16
2022-11-15T18:20:05.117Z,12.14
2022-11-15T18:25:06.943Z,12.17
2022-11-15T18:30:09.245Z,12.13
2022-11-15T18:35:10.810Z,12.19
2022-11-15T18:40:12.307Z,12.09
2022-11-15T18:45:13.771Z,12.07
2022-11-15T18:50:15.415Z,12.06
2022-11-15T18:55:16.886Z,12.08
2022-11-15T19:00:19.183Z,12.16
2022-11-15T19:05:20.711Z,12.05
2022-11-15T19:10:22.278Z,12.01
2022-11-15T19:15:23.814Z,11.99
2022-11-15T19:20:25.283Z,11.90
2022-11-15T19:25:26.767Z,11.88
2022-11-15T19:30:28.236Z,11.95
2022-11-15T19:35:29.707Z,11.90
2022-11-15T19:40:33.216Z,11.88
2022-11-15T19:45:34.647Z,12.07
2022-11-15T19:50:37.378Z,11.98
2022-11-15T19:55:38.875Z,11.86
2022-11-15T20:00:40.416Z,11.87
2022-11-15T20:05:41.977Z,11.88
2022-11-15T20:10:44.133Z,11.90
2022-11-15T20:15:45.610Z,11.89
2022-11-15T20:20:47.598Z,11.87
2022-11-15T20:25:49.111Z,11.79
2022-11-15T20:31:10.413Z,11.89
2022-11-15T20:36:14.659Z,11.87
2022-11-15T20:41:16.382Z,11.75
2022-11-15T20:46:18.268Z,11.72
2022-11-15T20:51:20.381Z,11.69
2022-11-15T20:56:22.096Z,11.79
2022-11-15T21:01:24.134Z,11.78
2022-11-15T21:06:26.917Z,11.69
2022-11-15T21:11:28.401Z,11.65
2022-11-15T21:16:29.809Z,11.64
2022-11-15T21:21:31.485Z,11.71
2022-11-15T21:26:33.417Z,11.64
2022-11-15T21:31:34.976Z,11.58
2022-11-15T21:36:36.590Z,11.69
2022-11-15T21:41:38.279Z,11.61
2022-11-15T21:46:40.080Z,11.61
2022-11-15T21:51:41.907Z,11.60
2022-11-15T21:56:43.711Z,11.77
2022-11-15T22:01:45.203Z,11.69
2022-11-15T22:06:47.372Z,11.71
2022-11-15T22:11:48.928Z,11.64
2022-11-15T22:16:50.343Z,11.58
2022-11-15T22:21:51.838Z,11.60
2022-11-15T22:26:53.310Z,11.61
2022-11-15T22:31:54.852Z,11.65
2022-11-15T22:37:19.647Z,11.61
2022-11-15T22:42:23.197Z,11.62
2022-11-15T22:47:25.670Z,11.61
2022-11-15T22:52:27.262Z,11.67
2022-11-15T22:57:28.810Z,11.66
2022-11-15T23:02:30.303Z,11.60
2022-11-15T23:07:32.595Z,11.64
2022-11-15T23:12:34.111Z,11.69
2022-11-15T23:17:35.607Z,11.78
2022-11-15T23:22:37.087Z,11.74
2022-11-15T23:27:38.571Z,11.70
2022-11-15T23:32:40.073Z,11.64
2022-11-15T23:37:41.835Z,11.74
2022-11-15T23:42:43.350Z,11.74
2022-11-15T23:47:45.178Z,11.68
2022-11-15T23:52:46.684Z,11.68
2022-11-15T23:57:48.183Z,11.67
